This is the latest recevied weather packets stored in our database for station/object SR4DIG-13. If no packets are shown the sender has not sent any weather packets the latest 1 day(s).
| Time | Temp. | Humidity | Pressure | Rain* | Wind** | Luminosity | Snow |
|---|---|---|---|---|---|---|---|
| 1778099755 | 17.78° C | 60% | 1005.8 hPa | 0 mm | - | - | - |
| 1778099454 | 17.78° C | 60% | 1005.8 hPa | 0 mm | - | - | - |
| 1778097321 | 18.33° C | 58% | 1005.8 hPa | 0 mm | - | - | - |
| 1778097020 | 18.33° C | 58% | 1005.8 hPa | 0 mm | - | - | - |
| 1778093976 | 19.44° C | 55% | 1005.8 hPa | 0 mm | - | - | - |
| 1778093675 | 19.44° C | 54% | 1005.8 hPa | 0 mm | - | - | - |
| 1778092151 | 20.56° C | 52% | 1005.4 hPa | 0 mm | - | - | - |
| 1778091850 | 20.56° C | 52% | 1005.2 hPa | 0 mm | - | - | - |
| 1778091248 | 21.11° C | 50% | 1005 hPa | 0 mm | - | - | - |
| 1778090646 | 21.11° C | 50% | 1004.9 hPa | 0 mm | - | - | - |
| 1778088792 | 22.22° C | 47% | 1004.6 hPa | 0 mm | - | - | - |
| 1778088491 | 22.22° C | 46% | 1004.5 hPa | 0 mm | - | - | - |
| 1778087588 | 22.78° C | 45% | 1004.5 hPa | 0 mm | - | - | - |
| 1778085726 | 23.33° C | 42% | 1004.3 hPa | 0 mm | - | - | - |
| 1778084222 | 23.89° C | 40% | 1004 hPa | 0 mm | - | - | - |
| 1778083901 | 24.44° C | 39% | 1004 hPa | 0 mm | - | - | - |
| 1778082397 | 25° C | 38% | 1003.9 hPa | 0 mm | - | - | - |
| 1778082096 | 25° C | 38% | 1003.9 hPa | 0 mm | - | - | - |
| 1778080592 | 25° C | 37% | 1003.9 hPa | 0 mm | - | - | - |
| 1778080233 | 25° C | 37% | 1003.8 hPa | 0 mm | - | - | - |
| 1778079631 | 25° C | 36% | 1003.8 hPa | 0 mm | - | - | - |
| 1778078697 | 25.56° C | 34% | 1003.7 hPa | 1.78 mm | - | - | - |
| 1778077494 | 26.11° C | 32% | 1003.4 hPa | 1.78 mm | - | - | - |
| 1778077193 | 26.11° C | 31% | 1003.5 hPa | 1.78 mm | - | - | - |
| 1778074421 | 27.22° C | 29% | 1003.3 hPa | 2.29 mm | - | - | - |
* Rain since midnight (hover to see other rain measurements)
** Current wind speed in m/s (hover to see current wind gust speed)